Airfield :
LOGIN :

Register | Disclaimer

   EN    FR    IT 

 










Legend :    VFR   Marginal VFR   IFR   Intensive IFR   Very Intensive IFR
Visi :
Ceiling :
>= 8 km
>= 3000ft
5 to 8 km
1000 to 3000 ft
1500m to 5 km
500 to 1000 ft
800 to 1500m
200 to 500 ft
< 800m
< 200 ft
Symbols :   Thunderstorms  Fog  Heavy snow  Heavy precipitations  Wind > 20 kt
SIGMETs :     Misc.  Thunderstorms  Icing  Turbulence  Mountain Waves  Volcanic Ashes







- Airport Elevation : 277 ft
- IATA code : JER
- Download approach charts


EGJJ - Jersey

CURRENT METAR :
  • 150950Z 32018KT 290V350 9999 FEW022CB SCT036 08/04 Q0999

EXPIRED METARs :
  • 150920Z 32019KT 9999 FEW022CB SCT029 08/05 Q0998
  • 150850Z 31022G32KT 9999 VCSH FEW020CB BKN027 08/05 Q0997
  • 150820Z 30020KT 9999 VCSH FEW020CB SCT029 07/04 Q0996 RESHRA
  • 150750Z 31020G33KT 280V340 9999 -SHRA FEW020CB SCT029 07/04 Q0996 RESHRA
  • 150720Z 30019KT 9999 -SHRA FEW018CB SCT025 BKN030 08/05 Q0996 RESHRA

TAF TAF EGJJ
Valid from the 15 at 09:00 until the 15 at 18:00 UTC


150759Z 1509/1518 32022G35KT 9999 FEW018CB
TEMPO 1509/1510 32030G45KT 5000 SHRA BKN018CB
PROB30
TEMPO 1509/1510 3000 TSRAGS BKN012CB
ATIS : +44 1534 498 073
No reported NOTAMs for that airfield.



MET'MAP, your aeronautical weather chart ! - Copyright ORBIFLY December 2007 - Disclaimer

ORBIFLY MET'MAP TEAM :

Programming & Development : Alexandra Zaïnal
Concept & Development : Baudouin d'Aumeries
Co-Development & Prog : Marc-Olivier Méhu
Technical & hardware support : Manuel Goepfert

Contact : metmap@orbifly.com




SOURCES & CREDITS :

   NOAA